Airfield :







YOU CAN JOIN US ON...

 
LOGIN :

Register | Disclaimer

   EN    FR    IT 

 









Legend :    VFR   Marginal VFR   IFR   Intensive IFR   Very Intensive IFR
Visi :
Ceiling :
>= 8 km
>= 3000ft
5 to 8 km
1000 to 3000 ft
1500m to 5 km
500 to 1000 ft
800 to 1500m
200 to 500 ft
< 800m
< 200 ft
Symbols :   Thunderstorms  Fog  Heavy snow  Heavy precipitations  Wind > 20 kt






- Airport Elevation : 603 ft
- IATA code : LEB


KLEB - Lebanon Municipal

CURRENT METAR :
  • 260317Z AUTO 03003KT 5SM -RA SCT009 BKN048 OVC060 03/01 A2974 RMK AO2 P0002 T00330006

EXPIRED METARs :
  • 260253Z VRB03KT 3SM -RA BR BKN009 OVC025 03/01 A2977 RMK AO2 PRESFR SLP086 P0019 60035 T00280011 56047
  • 260246Z VRB03KT 4SM -RA BR BKN009 BKN013 OVC025 03/01 A2978 RMK AO2 P0017 T00330011
  • 260233Z 00000KT 2 1/2SM RA FEW011 SCT016 OVC025 04/01 A2980 RMK AO2 P0014 T00390011
  • 260212Z VRB04KT 4SM -RA BR BKN015 OVC019 03/01 A2981 RMK AO2 P0005 T00330011
  • 260153Z 00000KT 4SM -RA BR OVC013 03/01 A2981 RMK AO2 SLP102 P0011 T00280006
  • 260053Z VRB05KT 7SM -RA OVC011 03/01 A2985 RMK AO2 SLP115 P0005 T00330011

TAF KLEB
Valid from the 26 at 00:00 until the 27 at 00:00 UTC


252346Z 2600/2624 VRB05KT 4SM -RA OVC007 WS020/10040KT
FM260100 VRB05KT 1SM RA BR OVC007 WS020/10045KT
FM260400 VRB03KT 5SM -SHRA BR BKN003 OVC007
FM260900 VRB03KT P6SM BKN015 OVC050
FM261200 25006KT P6SM BKN050



MET'MAP, your aeronautical weather chart ! - Copyright ORBIFLY December 2007 - Disclaimer

ORBIFLY MET'MAP TEAM :

Programming & Development : Alexandra Zaïnal
Concept & original design : Baudouin d'Aumeries
Assistance for programming : Marc-Olivier Méhu
Technical & hardware support : Manuel Goepfert

Contact : metmap@orbifly.com




SOURCES & CREDITS :

   NOAA